Time;durP1;ratioP1;P1;durP2;ratioP2;P2;SDS_P1;SDS_P2;PMS_P1;PMS_P2;Temp;Humidity;BMP_temperature;BMP_pressure;BME280_temperature;BME280_humidity;BME280_pressure;Samples;Min_cycle;Max_cycle;Signal;HPM_P1;HPM_P2
2023/04/01 00:00:12;;;;;;;;;0.00;0.00;;;;;13.36;62.50;99673.84;2095666;28;46278;-59
2023/04/01 00:01:14;;;;;;;;;2.00;0.25;;;;;13.38;62.50;99689.75;2088004;28;46338;-61
2023/04/01 00:02:15;;;;;;;;;1.50;0.00;;;;;13.37;62.47;99688.91;2092769;28;46373;-60
2023/04/01 00:03:15;;;;;;;;;1.00;0.00;;;;;13.37;62.41;99690.72;2096295;28;46963;-61
2023/04/01 00:04:16;;;;;;;;;0.00;0.00;;;;;13.36;62.52;99686.31;2096552;28;46844;-59
2023/04/01 00:05:17;;;;;;;;;0.00;0.00;;;;;13.36;62.16;99671.19;2096266;28;46509;-60
2023/04/01 00:06:18;;;;;;;;;0.33;0.00;;;;;13.36;61.98;99686.31;2096535;28;46387;-61
2023/04/01 00:07:18;;;;;;;;;0.00;0.00;;;;;13.35;62.45;99689.94;2096698;28;45060;-60
2023/04/01 00:08:19;;;;;;;;;1.00;1.00;;;;;13.36;62.35;99689.00;2095682;28;46127;-61
2023/04/01 00:09:19;;;;;;;;;0.00;0.00;;;;;13.35;62.21;99693.47;2096210;28;46190;-60
2023/04/01 00:10:20;;;;;;;;;0.00;0.00;;;;;13.36;62.18;99696.97;2096520;28;46408;-60
2023/04/01 00:11:20;;;;;;;;;0.67;0.67;;;;;13.34;62.38;99681.06;2096483;28;46339;-60
2023/04/01 00:12:21;;;;;;;;;0.00;0.00;;;;;13.32;62.29;99690.06;2095960;28;46526;-60
2023/04/01 00:13:21;;;;;;;;;1.33;1.00;;;;;13.32;62.25;99698.03;2092832;28;46312;-59
2023/04/01 00:14:22;;;;;;;;;0.00;0.00;;;;;13.29;62.20;99687.56;2095773;28;46402;-59
2023/04/01 00:15:22;;;;;;;;;1.00;1.00;;;;;13.28;62.17;99705.34;2096202;28;46260;-59
2023/04/01 00:16:22;;;;;;;;;0.00;0.00;;;;;13.28;62.51;99694.69;2096003;28;46214;-58
2023/04/01 00:17:23;;;;;;;;;1.00;1.00;;;;;13.27;62.52;99692.97;2095399;28;46293;-61
2023/04/01 00:18:24;;;;;;;;;1.00;1.00;;;;;13.28;62.97;99701.81;2095783;28;46178;-61
2023/04/01 00:19:24;;;;;;;;;0.00;0.00;;;;;13.25;62.52;99684.19;2096318;28;46305;-61
2023/04/01 00:20:25;;;;;;;;;0.00;0.00;;;;;13.23;62.79;99705.56;2095670;28;46388;-60
2023/04/01 00:21:26;;;;;;;;;0.00;0.00;;;;;13.22;62.62;99697.66;2095842;28;46566;-60
2023/04/01 00:22:26;;;;;;;;;0.33;0.33;;;;;13.23;62.59;99694.91;2097844;28;46493;-61
2023/04/01 00:23:27;;;;;;;;;1.00;0.00;;;;;13.24;63.04;99687.78;2104471;28;46399;-62
2023/04/01 00:24:27;;;;;;;;;2.00;0.67;;;;;13.25;62.91;99692.19;2093975;28;47178;-60
2023/04/01 00:25:28;;;;;;;;;0.00;0.00;;;;;13.26;62.82;99688.56;2096387;28;46592;-60
2023/04/01 00:26:28;;;;;;;;;1.00;1.00;;;;;13.25;62.77;99702.81;2096076;28;46824;-61
2023/04/01 00:27:29;;;;;;;;;0.00;0.00;;;;;13.25;62.92;99701.03;2096058;28;46227;-58
2023/04/01 00:28:29;;;;;;;;;0.00;0.00;;;;;13.23;62.91;99688.72;2096159;28;46434;-62
2023/04/01 00:29:30;;;;;;;;;0.00;0.00;;;;;13.23;62.85;99702.91;2089211;28;46843;-59
2023/04/01 00:30:30;;;;;;;;;2.00;2.00;;;;;13.22;62.90;99698.53;2087970;28;45665;-60
2023/04/01 00:31:31;;;;;;;;;0.00;0.00;;;;;13.22;62.84;99692.34;2087915;28;46628;-60
2023/04/01 00:32:31;;;;;;;;;1.33;1.33;;;;;13.22;62.98;99693.19;2096510;28;46429;-60
2023/04/01 00:33:32;;;;;;;;;0.00;0.00;;;;;13.24;63.08;99691.31;2095896;28;46873;-60
2023/04/01 00:34:32;;;;;;;;;1.00;0.00;;;;;13.24;63.05;99699.31;2095587;28;46793;-59
2023/04/01 00:35:33;;;;;;;;;1.00;1.00;;;;;13.24;62.95;99698.44;2089421;28;45513;-59
2023/04/01 00:36:33;;;;;;;;;1.67;1.00;;;;;13.24;63.10;99701.09;2089093;28;46619;-60
2023/04/01 00:37:39;;;;;;;;;0.00;0.00;;;;;13.24;63.18;99695.78;2095438;28;46307;-61
2023/04/01 00:38:41;;;;;;;;;2.00;0.50;;;;;13.22;63.07;99701.19;2096231;28;46293;-61
2023/04/01 00:39:41;;;;;;;;;0.75;0.00;;;;;13.23;62.95;99707.38;2096023;28;46737;-61
2023/04/01 00:40:44;;;;;;;;;0.00;0.00;;;;;13.22;63.13;99722.50;2089850;28;46550;-60
2023/04/01 00:41:45;;;;;;;;;1.00;0.50;;;;;13.21;63.30;99710.13;2091884;28;46022;-62
2023/04/01 00:42:45;;;;;;;;;0.00;0.00;;;;;13.21;63.19;99709.22;2096223;28;46379;-60
2023/04/01 00:43:49;;;;;;;;;0.00;0.00;;;;;13.22;63.30;99706.50;2096075;28;46355;-60
2023/04/01 00:44:54;;;;;;;;;0.50;0.00;;;;;13.21;63.12;99690.56;2095834;28;46687;-61
2023/04/01 00:45:55;;;;;;;;;0.00;0.00;;;;;13.21;63.30;99704.78;2100031;28;46322;-61
2023/04/01 00:46:56;;;;;;;;;0.00;0.00;;;;;13.22;63.42;99706.50;2100018;28;46980;-61
2023/04/01 00:48:01;;;;;;;;;1.00;1.00;;;;;13.24;63.31;99695.78;2098405;28;46617;-59
2023/04/01 00:49:02;;;;;;;;;0.50;0.50;;;;;13.25;63.35;99697.50;2096256;28;46617;-59
2023/04/01 00:50:02;;;;;;;;;1.00;0.75;;;;;13.26;63.38;99701.88;2102940;28;46778;-61
2023/04/01 00:51:37;;;;;;;;;1.00;1.00;;;;;13.27;63.19;99694.75;2104972;28;46456;-58
2023/04/01 00:52:38;;;;;;;;;0.00;0.00;;;;;13.26;63.50;99704.56;2054700;28;46527;-59
2023/04/01 00:53:43;;;;;;;;;0.00;0.00;;;;;13.26;63.14;99704.56;2061818;28;46866;-60
2023/04/01 00:54:48;;;;;;;;;0.00;0.00;;;;;13.27;63.52;99694.75;2060677;28;46644;-60
2023/04/01 00:55:59;;;;;;;;;0.00;0.00;;;;;13.27;63.30;99703.63;2062661;28;46799;-60
2023/04/01 00:57:00;;;;;;;;;0.00;0.00;;;;;13.26;63.60;99701.88;2062088;28;46478;-60
2023/04/01 00:58:03;;;;;;;;;0.00;0.00;;;;;13.27;63.06;99698.28;2062207;28;46810;-60
2023/04/01 00:59:10;;;;;;;;;0.00;0.00;;;;;13.28;63.47;99705.34;2062193;28;46733;-61
2023/04/01 01:00:13;;;;;;;;;0.00;0.00;;;;;13.27;63.59;99698.28;2062129;28;45983;-60
2023/04/01 01:01:15;;;;;;;;;0.00;0.00;;;;;13.25;63.41;99689.50;2062001;28;45096;-60
2023/04/01 01:02:16;;;;;;;;;1.00;0.00;;;;;13.23;63.65;99678.94;2062500;28;46535;-60
2023/04/01 01:03:16;;;;;;;;;0.00;0.00;;;;;13.23;63.55;99691.38;2061452;28;46400;-61
2023/04/01 01:04:35;;;;;;;;;0.00;0.00;;;;;13.21;63.66;99690.56;2062242;28;46831;-60
2023/04/01 01:06:02;;;;;;;;;0.00;0.00;;;;;13.19;63.61;99695.97;2062588;28;46659;-61
2023/04/01 01:07:12;;;;;;;;;0.00;0.00;;;;;13.21;63.96;99702.13;2062759;28;47140;-60
2023/04/01 01:08:30;;;;;;;;;0.00;0.00;;;;;13.21;63.82;99698.56;2062043;28;46584;-60
2023/04/01 01:09:45;;;;;;;;;0.50;0.50;;;;;13.21;63.59;99698.56;2053475;28;46457;-61
2023/04/01 01:10:49;;;;;;;;;1.75;1.75;;;;;13.19;64.23;99695.97;2054109;28;46953;-59
2023/04/01 01:11:59;;;;;;;;;0.00;0.00;;;;;13.18;64.41;99696.03;2053743;28;46345;-61
2023/04/01 01:13:16;;;;;;;;;2.50;0.75;;;;;13.18;64.53;99701.34;2051457;28;45908;-60
2023/04/01 01:14:44;;;;;;;;;1.25;0.00;;;;;13.16;64.70;99695.25;2038966;28;46299;-60
2023/04/01 01:15:52;;;;;;;;;2.25;0.25;;;;;13.15;64.79;99699.72;2037846;28;46339;-60
2023/04/01 01:17:11;;;;;;;;;0.00;0.00;;;;;13.16;64.90;99695.25;2031381;28;46440;-60
2023/04/01 01:18:40;;;;;;;;;0.00;0.00;;;;;13.16;65.01;99696.09;2050234;28;46439;-60
2023/04/01 01:20:10;;;;;;;;;0.25;0.00;;;;;13.13;64.88;99701.59;2053846;28;45761;-60
2023/04/01 01:21:25;;;;;;;;;0.00;0.00;;;;;13.11;65.27;99700.81;2046200;28;46984;-60
2023/04/01 01:22:28;;;;;;;;;1.00;1.00;;;;;13.07;65.56;99693.88;2045713;28;46570;-59
2023/04/01 01:23:50;;;;;;;;;0.75;0.75;;;;;13.05;65.35;99700.22;2046310;28;46076;-61
2023/04/01 01:25:31;;;;;;;;;1.25;0.00;;;;;13.02;65.59;99690.59;2052549;28;46468;-62
2023/04/01 01:26:51;;;;;;;;;1.50;0.00;;;;;13.01;65.68;99702.19;2038393;28;46560;-60
2023/04/01 01:28:39;;;;;;;;;0.25;0.25;;;;;13.00;65.52;99694.25;2045414;28;46387;-59
2023/04/01 01:29:57;;;;;;;;;0.25;0.25;;;;;13.00;65.48;99689.81;2058932;28;46426;-60
2023/04/01 01:31:16;;;;;;;;;1.50;0.50;;;;;13.00;65.68;99692.47;2061296;28;47124;-62
2023/04/01 01:32:35;;;;;;;;;1.25;1.00;;;;;13.01;65.53;99693.31;2062050;28;46264;-60
2023/04/01 01:33:58;;;;;;;;;0.75;0.00;;;;;12.99;65.36;99697.88;2045577;28;46659;-60
2023/04/01 01:35:20;;;;;;;;;1.00;1.00;;;;;12.96;65.32;99702.41;2045980;28;46949;-59
2023/04/01 01:36:21;;;;;;;;;0.00;0.00;;;;;12.96;65.56;99707.72;2058634;28;46759;-59
2023/04/01 01:37:25;;;;;;;;;0.00;0.00;;;;;12.96;65.52;99693.56;2060826;28;46770;-59
2023/04/01 01:38:31;;;;;;;;;0.00;0.00;;;;;12.95;65.27;99689.13;2053611;28;46647;-60
2023/04/01 01:39:34;;;;;;;;;0.00;0.00;;;;;12.95;65.25;99692.66;2056192;28;46908;-61
2023/04/01 01:40:39;;;;;;;;;1.00;0.00;;;;;12.96;65.33;99696.22;2055381;28;46148;-61
2023/04/01 01:41:42;;;;;;;;;0.00;0.00;;;;;12.96;65.18;99693.56;2062468;28;46259;-60
2023/04/01 01:42:50;;;;;;;;;1.25;0.25;;;;;12.97;65.20;99695.28;2069185;28;46802;-61
2023/04/01 01:43:53;;;;;;;;;0.00;0.00;;;;;12.97;65.20;99705.94;2071693;28;46975;-60
2023/04/01 01:44:57;;;;;;;;;0.75;0.00;;;;;12.98;65.54;99705.00;2071449;28;45876;-59
2023/04/01 01:46:02;;;;;;;;;0.75;0.00;;;;;12.99;65.11;99708.53;2071478;28;46763;-60
2023/04/01 01:47:03;;;;;;;;;1.00;1.00;;;;;12.98;65.59;99704.13;2071469;28;47036;-60
2023/04/01 01:48:06;;;;;;;;;0.00;0.00;;;;;12.98;65.46;99702.34;2064238;28;46401;-60
2023/04/01 01:49:11;;;;;;;;;0.00;0.00;;;;;12.98;65.62;99704.13;2066452;28;45058;-60
2023/04/01 01:50:13;;;;;;;;;0.75;0.00;;;;;12.96;65.58;99705.06;2070881;28;46875;-59
2023/04/01 01:51:14;;;;;;;;;0.00;0.00;;;;;12.98;65.52;99704.13;2071600;28;46698;-61
2023/04/01 01:52:16;;;;;;;;;0.00;0.00;;;;;12.96;65.61;99713.06;2071463;28;46757;-60
2023/04/01 01:53:17;;;;;;;;;1.25;1.25;;;;;12.96;65.77;99714.88;2071720;28;46968;-60
2023/04/01 01:54:18;;;;;;;;;0.00;0.00;;;;;12.96;65.94;99705.06;2071303;28;46598;-59
2023/04/01 01:55:46;;;;;;;;;0.00;0.00;;;;;12.94;66.19;99712.25;2071344;28;46264;-59
2023/04/01 01:56:50;;;;;;;;;1.50;0.00;;;;;12.91;66.34;99709.72;2047403;28;47270;-60
2023/04/01 01:57:51;;;;;;;;;3.00;2.00;;;;;12.89;66.60;99706.28;2047328;28;46593;-61
2023/04/01 01:59:00;;;;;;;;;0.00;0.00;;;;;12.88;66.67;99717.00;2047390;28;46564;-60
2023/04/01 02:00:13;;;;;;;;;0.00;0.00;;;;;12.85;66.96;99695.88;2046753;28;46821;-60
2023/04/01 02:01:19;;;;;;;;;0.25;0.25;;;;;12.84;67.20;99710.13;2047229;28;46682;-61
2023/04/01 02:02:22;;;;;;;;;0.00;0.00;;;;;12.83;67.03;99716.34;2038358;28;46643;-59
2023/04/01 02:03:26;;;;;;;;;0.00;0.00;;;;;12.79;67.07;99712.97;2031799;28;46666;-60
2023/04/01 02:04:27;;;;;;;;;0.25;0.25;;;;;12.76;67.06;99710.47;2031376;29;46924;-59
2023/04/01 02:05:30;;;;;;;;;0.00;0.00;;;;;12.76;67.21;99715.78;2031936;29;46485;-59
2023/04/01 02:06:34;;;;;;;;;0.75;0.00;;;;;12.77;67.38;99724.63;2051156;28;46750;-60
2023/04/01 02:07:36;;;;;;;;;2.00;2.00;;;;;12.77;67.47;99720.16;2063233;28;46509;-60
2023/04/01 02:08:42;;;;;;;;;0.00;0.00;;;;;12.78;67.01;99721.03;2063074;28;46313;-60
2023/04/01 02:09:43;;;;;;;;;0.25;0.25;;;;;12.78;67.38;99718.38;2062813;28;46346;-61
2023/04/01 02:10:55;;;;;;;;;0.00;0.00;;;;;12.78;67.72;99713.03;2063433;28;46699;-60
2023/04/01 02:11:57;;;;;;;;;0.25;0.25;;;;;12.77;67.41;99719.31;2063194;28;46576;-59
2023/04/01 02:13:01;;;;;;;;;0.00;0.00;;;;;12.77;67.74;99716.66;2062906;28;46623;-61
2023/04/01 02:14:10;;;;;;;;;0.75;0.75;;;;;12.75;67.64;99721.19;2061332;28;47048;-61
2023/04/01 02:15:14;;;;;;;;;1.00;0.00;;;;;12.74;67.56;99716.78;2063600;28;46458;-60
2023/04/01 02:16:21;;;;;;;;;1.25;0.25;;;;;12.72;67.56;99713.34;2063135;28;46976;-61
2023/04/01 02:17:26;;;;;;;;;2.00;0.00;;;;;12.70;67.74;99718.72;2063107;28;46447;-60
2023/04/01 02:18:29;;;;;;;;;0.50;0.50;;;;;12.68;68.01;99708.13;2062856;28;46583;-60
2023/04/01 02:19:38;;;;;;;;;0.00;0.00;;;;;12.68;67.77;99724.13;2063729;28;46781;-61
2023/04/01 02:20:40;;;;;;;;;0.75;0.00;;;;;12.66;68.04;99719.78;2059867;28;45682;-59
2023/04/01 02:21:42;;;;;;;;;0.00;0.00;;;;;12.66;67.76;99723.31;2057566;28;46072;-61
2023/04/01 02:22:55;;;;;;;;;0.00;0.00;;;;;12.66;68.22;99718.00;2063264;28;45243;-59
2023/04/01 02:23:58;;;;;;;;;1.75;0.25;;;;;12.65;67.68;99716.28;2062921;28;46628;-61
2023/04/01 02:25:06;;;;;;;;;0.00;0.00;;;;;12.67;68.04;99727.72;2063547;28;46563;-60
2023/04/01 02:26:09;;;;;;;;;0.75;0.00;;;;;12.68;68.36;99724.13;2055301;28;46959;-60
2023/04/01 02:27:10;;;;;;;;;0.50;0.50;;;;;12.70;67.81;99717.84;2062386;28;46705;-59
2023/04/01 02:28:15;;;;;;;;;0.00;0.00;;;;;12.68;67.77;99721.44;2062544;28;46257;-58
2023/04/01 02:29:19;;;;;;;;;0.50;0.00;;;;;12.68;68.00;99716.13;2063054;28;46900;-59
2023/04/01 02:30:21;;;;;;;;;1.00;1.00;;;;;12.68;68.40;99724.13;2063127;28;45191;-59
2023/04/01 02:31:22;;;;;;;;;0.50;0.00;;;;;12.68;68.00;99720.59;2062908;28;46502;-60
2023/04/01 02:32:22;;;;;;;;;1.00;1.00;;;;;12.68;68.21;99725.91;2046738;28;46947;-60
2023/04/01 02:33:23;;;;;;;;;1.00;1.00;;;;;12.67;67.93;99714.41;2046936;28;45884;-60
2023/04/01 02:34:26;;;;;;;;;1.00;1.00;;;;;12.67;68.01;99727.72;2086029;28;47360;-60
2023/04/01 02:35:26;;;;;;;;;2.25;1.00;;;;;12.66;68.23;99728.66;2105669;28;46456;-60
2023/04/01 02:36:27;;;;;;;;;1.00;1.00;;;;;12.67;68.17;99721.53;2091969;28;46476;-59
2023/04/01 02:37:27;;;;;;;;;1.00;1.00;;;;;12.67;67.90;99729.50;2080032;28;46193;-60
2023/04/01 02:38:28;;;;;;;;;1.00;1.00;;;;;12.68;67.84;99720.59;2104578;28;46624;-61
2023/04/01 02:39:28;;;;;;;;;1.00;0.00;;;;;12.68;67.79;99731.22;2109966;27;46428;-61
2023/04/01 02:40:29;;;;;;;;;1.67;1.67;;;;;12.70;67.41;99725.84;2103547;27;46975;-60
2023/04/01 02:41:30;;;;;;;;;1.00;1.00;;;;;12.70;67.71;99725.84;2106186;28;46568;-61
2023/04/01 02:42:30;;;;;;;;;0.00;0.00;;;;;12.72;67.67;99718.66;2103459;28;46633;-60
2023/04/01 02:43:30;;;;;;;;;0.67;0.67;;;;;12.72;67.44;99716.88;2097236;28;46728;-59
2023/04/01 02:44:31;;;;;;;;;0.00;0.00;;;;;12.73;67.54;99723.91;2097366;28;45872;-61
2023/04/01 02:45:31;;;;;;;;;0.00;0.00;;;;;12.74;67.46;99727.44;2096895;28;46097;-60
2023/04/01 02:46:31;;;;;;;;;1.67;0.33;;;;;12.72;67.29;99719.53;2104047;28;46782;-61
2023/04/01 02:47:32;;;;;;;;;0.00;0.00;;;;;12.72;67.21;99719.53;2105729;28;46919;-59
2023/04/01 02:48:32;;;;;;;;;1.67;1.67;;;;;12.71;67.13;99725.78;2105671;28;45452;-58
2023/04/01 02:49:32;;;;;;;;;0.00;0.00;;;;;12.73;66.74;99726.59;2104228;28;46004;-59
2023/04/01 02:50:33;;;;;;;;;0.00;0.00;;;;;12.74;67.05;99720.31;2096467;28;46691;-59
2023/04/01 02:51:34;;;;;;;;;0.00;0.00;;;;;12.73;67.02;99720.41;2096348;28;46875;-61
2023/04/01 02:52:34;;;;;;;;;0.00;0.00;;;;;12.75;66.88;99726.50;2101631;28;46715;-60
2023/04/01 02:53:35;;;;;;;;;0.00;0.00;;;;;12.75;66.71;99726.50;2097001;28;46488;-59
2023/04/01 02:54:36;;;;;;;;;1.00;0.00;;;;;12.75;66.72;99729.16;2104155;28;47015;-59
2023/04/01 02:55:36;;;;;;;;;0.00;0.00;;;;;12.76;66.61;99736.22;2105040;28;46569;-58
2023/04/01 02:56:36;;;;;;;;;3.00;0.00;;;;;12.76;66.62;99722.91;2105459;28;46291;-59
2023/04/01 02:57:37;;;;;;;;;0.00;0.00;;;;;12.77;66.59;99736.13;2101438;28;46236;-58
2023/04/01 02:58:37;;;;;;;;;0.00;0.00;;;;;12.76;66.50;99734.41;2104724;28;46359;-60
2023/04/01 02:59:38;;;;;;;;;2.00;0.00;;;;;12.76;66.24;99742.41;2093401;28;46826;-60
2023/04/01 03:00:38;;;;;;;;;0.00;0.00;;;;;12.75;66.13;99731.84;2096288;28;46857;-58
2023/04/01 03:01:38;;;;;;;;;1.00;0.33;;;;;12.75;66.27;99729.16;2105323;27;46466;-60
2023/04/01 03:02:39;;;;;;;;;1.00;0.67;;;;;12.72;66.36;99738.16;2098299;28;46654;-61
2023/04/01 03:03:39;;;;;;;;;1.00;1.00;;;;;12.72;66.47;99738.16;2103094;28;46188;-60
2023/04/01 03:04:40;;;;;;;;;2.00;0.33;;;;;12.72;66.24;99731.97;2105104;28;46088;-60
2023/04/01 03:05:40;;;;;;;;;1.00;1.00;;;;;12.72;66.23;99735.50;2105611;28;46625;-60
2023/04/01 03:06:40;;;;;;;;;0.00;0.00;;;;;12.72;66.28;99740.84;2101070;28;46637;-60
2023/04/01 03:07:41;;;;;;;;;1.00;0.00;;;;;12.71;66.41;99731.13;2095939;28;46570;-60
2023/04/01 03:08:41;;;;;;;;;0.00;0.00;;;;;12.73;66.22;99741.69;2096606;28;46516;-60
2023/04/01 03:09:42;;;;;;;;;0.25;0.00;;;;;12.74;66.23;99746.94;2087048;28;46784;-59
2023/04/01 03:10:42;;;;;;;;;1.67;1.00;;;;;12.74;66.17;99744.28;2087266;28;46810;-59
2023/04/01 03:11:43;;;;;;;;;0.00;0.00;;;;;12.76;66.18;99746.88;2102799;28;46153;-59
2023/04/01 03:12:43;;;;;;;;;1.00;1.00;;;;;12.75;66.48;99745.13;2105547;28;46990;-59
2023/04/01 03:13:43;;;;;;;;;0.33;0.33;;;;;12.75;66.19;99738.00;2096124;28;46299;-59
2023/04/01 03:14:44;;;;;;;;;0.00;0.00;;;;;12.75;66.13;99745.13;2096526;28;46735;-60
2023/04/01 03:15:44;;;;;;;;;0.67;0.67;;;;;12.75;66.12;99748.66;2104568;28;46500;-59
2023/04/01 03:16:45;;;;;;;;;0.67;0.67;;;;;12.75;66.08;99737.16;2097949;28;46590;-60
2023/04/01 03:17:46;;;;;;;;;1.00;1.00;;;;;12.75;66.16;99742.47;2099438;28;46651;-59
2023/04/01 03:18:49;;;;;;;;;1.50;0.00;;;;;12.75;65.96;99751.31;2105335;28;46434;-59
2023/04/01 03:19:49;;;;;;;;;0.00;0.00;;;;;12.76;66.06;99744.22;2105454;28;46358;-60
2023/04/01 03:20:49;;;;;;;;;1.33;0.00;;;;;12.74;66.01;99746.94;2101772;28;45691;-59
2023/04/01 03:21:50;;;;;;;;;0.00;0.00;;;;;12.75;66.10;99748.66;2105541;28;46714;-59
2023/04/01 03:22:50;;;;;;;;;0.00;0.00;;;;;12.75;66.14;99753.13;2105004;28;45989;-60
2023/04/01 03:23:51;;;;;;;;;0.00;0.00;;;;;12.77;66.23;99753.91;2105308;28;46571;-61
2023/04/01 03:24:52;;;;;;;;;0.00;0.00;;;;;12.77;66.02;99749.44;2104709;27;45505;-61
2023/04/01 03:25:52;;;;;;;;;0.00;0.00;;;;;12.77;66.07;99749.44;2105444;28;46873;-59
2023/04/01 03:26:52;;;;;;;;;1.67;1.00;;;;;12.78;65.97;99753.84;2105064;28;46239;-60
2023/04/01 03:27:53;;;;;;;;;0.00;0.00;;;;;12.79;66.15;99755.56;2105255;28;45839;-60
2023/04/01 03:28:53;;;;;;;;;2.67;1.00;;;;;12.80;66.20;99765.28;2102764;27;46602;-60
2023/04/01 03:29:54;;;;;;;;;0.33;0.00;;;;;12.81;66.19;99759.00;2104842;28;46248;-59
2023/04/01 03:30:54;;;;;;;;;1.00;1.00;;;;;12.82;66.05;99758.09;2105438;28;45383;-60
2023/04/01 03:31:57;;;;;;;;;0.00;0.00;;;;;12.83;66.04;99766.94;2105213;28;47615;-61
2023/04/01 03:32:59;;;;;;;;;0.50;0.25;;;;;12.82;66.09;99760.75;2079551;28;46233;-60
2023/04/01 03:33:59;;;;;;;;;2.00;0.50;;;;;12.82;66.21;99768.72;2081958;28;45200;-59
2023/04/01 03:35:00;;;;;;;;;0.00;0.00;;;;;12.83;66.06;99769.59;2087278;28;46840;-60
2023/04/01 03:36:00;;;;;;;;;0.00;0.00;;;;;12.82;66.24;99771.41;2087243;28;46417;-60
2023/04/01 03:37:00;;;;;;;;;1.33;1.33;;;;;12.82;66.21;99774.06;2087229;28;46619;-60
2023/04/01 03:38:01;;;;;;;;;2.00;0.67;;;;;12.81;66.12;99768.81;2087152;28;46655;-61
2023/04/01 03:39:03;;;;;;;;;1.67;0.33;;;;;12.80;66.47;99753.78;2087518;28;46292;-59
2023/04/01 03:40:04;;;;;;;;;0.00;0.00;;;;;12.79;66.51;99770.69;2087653;28;46581;-60
2023/04/01 03:41:05;;;;;;;;;0.00;0.00;;;;;12.77;66.88;99770.75;2086667;28;46518;-61
2023/04/01 03:42:06;;;;;;;;;0.50;0.00;;;;;12.76;66.58;99766.38;2084884;28;46894;-61
2023/04/01 03:43:08;;;;;;;;;0.00;0.00;;;;;12.76;66.47;99763.69;2083636;28;46468;-59
2023/04/01 03:44:08;;;;;;;;;1.00;1.00;;;;;12.73;66.66;99777.16;2087266;28;46951;-62
2023/04/01 03:45:09;;;;;;;;;0.00;0.00;;;;;12.73;66.75;99753.19;2079691;28;46403;-60
2023/04/01 03:46:09;;;;;;;;;0.33;0.33;;;;;12.72;66.85;99767.44;2079174;28;46183;-61
2023/04/01 03:47:10;;;;;;;;;0.00;0.00;;;;;12.73;66.72;99765.66;2087174;28;46224;-60
2023/04/01 03:48:10;;;;;;;;;1.00;1.00;;;;;12.72;66.55;99770.13;2087551;28;45716;-61
2023/04/01 03:49:11;;;;;;;;;0.00;0.00;;;;;12.74;66.72;99764.72;2087089;28;46255;-60
2023/04/01 03:50:11;;;;;;;;;1.00;1.00;;;;;12.72;66.76;99767.44;2087272;28;46331;-62
2023/04/01 03:51:12;;;;;;;;;0.00;0.00;;;;;12.73;66.85;99777.16;2087339;28;46808;-59
2023/04/01 03:52:12;;;;;;;;;0.00;0.00;;;;;12.74;66.61;99772.69;2080464;28;46279;-62
2023/04/01 03:53:13;;;;;;;;;0.33;0.33;;;;;12.74;66.75;99770.91;2084360;28;46030;-59
2023/04/01 03:54:13;;;;;;;;;0.00;0.00;;;;;12.75;66.56;99787.75;2078924;28;46274;-60
2023/04/01 03:55:13;;;;;;;;;1.00;0.00;;;;;12.75;66.60;99777.09;2070937;28;46802;-60
2023/04/01 03:56:14;;;;;;;;;0.67;0.67;;;;;12.75;66.47;99779.75;2078715;28;46425;-61
2023/04/01 03:57:14;;;;;;;;;2.00;1.00;;;;;12.74;66.64;99772.69;2087433;28;46549;-60
2023/04/01 03:58:15;;;;;;;;;0.00;0.00;;;;;12.75;66.74;99785.06;2087277;28;46134;-60
2023/04/01 03:59:16;;;;;;;;;1.00;1.00;;;;;12.75;66.47;99767.31;2086959;28;47204;-61
2023/04/01 04:00:16;;;;;;;;;0.00;0.00;;;;;12.76;66.37;99777.00;2086962;28;46019;-62
2023/04/01 04:01:23;;;;;;;;;1.67;0.00;;;;;12.77;66.34;99770.75;2086203;28;46311;-61
2023/04/01 04:02:23;;;;;;;;;1.00;1.00;;;;;12.76;66.20;99769.03;2080673;28;46593;-60
2023/04/01 04:03:23;;;;;;;;;1.00;1.00;;;;;12.78;66.29;99768.94;2078707;28;46054;-61
2023/04/01 04:04:24;;;;;;;;;0.00;0.00;;;;;12.78;66.21;99783.13;2083343;28;46451;-59
2023/04/01 04:05:25;;;;;;;;;0.00;0.00;;;;;12.79;66.21;99776.00;2096121;28;45545;-61
2023/04/01 04:06:26;;;;;;;;;1.25;1.25;;;;;12.79;66.29;99771.53;2100517;28;46654;-60
2023/04/01 04:07:27;;;;;;;;;0.00;0.00;;;;;12.81;66.03;99775.00;2096100;28;46772;-61
2023/04/01 04:08:27;;;;;;;;;1.33;0.00;;;;;12.81;65.85;99775.00;2103933;28;45717;-60
2023/04/01 04:09:30;;;;;;;;;1.00;0.00;;;;;12.82;65.94;99774.06;2104699;28;46209;-61
2023/04/01 04:10:30;;;;;;;;;2.25;1.75;;;;;12.82;65.81;99773.19;2105000;28;46701;-60
2023/04/01 04:11:32;;;;;;;;;0.00;0.00;;;;;12.83;65.56;99790.91;2104898;28;47016;-59
2023/04/01 04:12:32;;;;;;;;;0.00;0.00;;;;;12.82;65.35;99770.53;2104455;28;46475;-60
2023/04/01 04:13:32;;;;;;;;;1.33;1.33;;;;;12.81;65.56;99774.13;2101038;28;46746;-60
2023/04/01 04:14:33;;;;;;;;;0.00;0.00;;;;;12.79;65.32;99782.19;2102597;28;46093;-60
2023/04/01 04:15:33;;;;;;;;;2.00;2.00;;;;;12.78;65.28;99775.13;2104629;28;46527;-61
2023/04/01 04:16:36;;;;;;;;;2.00;0.00;;;;;12.77;65.40;99772.56;2105705;28;46062;-60
2023/04/01 04:17:37;;;;;;;;;1.00;1.00;;;;;12.75;65.29;99777.94;2102255;28;46739;-60
2023/04/01 04:18:37;;;;;;;;;1.00;0.00;;;;;12.75;65.45;99783.28;2096067;28;46678;-58
2023/04/01 04:19:37;;;;;;;;;1.00;0.00;;;;;12.76;65.68;99779.69;2102741;28;46015;-60
2023/04/01 04:20:50;;;;;;;;;0.00;0.00;;;;;12.76;65.32;99778.81;2102309;28;46646;-59
2023/04/01 04:21:51;;;;;;;;;1.50;0.00;;;;;12.75;65.35;99782.41;2104758;28;46826;-61
2023/04/01 04:22:51;;;;;;;;;1.67;0.00;;;;;12.74;65.12;99778.88;2103209;28;46726;-59
2023/04/01 04:23:51;;;;;;;;;0.00;0.00;;;;;12.73;65.31;99782.47;2104755;28;46279;-62
2023/04/01 04:24:52;;;;;;;;;0.00;0.00;;;;;12.73;65.38;99778.97;2104946;27;46695;-61
2023/04/01 04:25:54;;;;;;;;;1.00;0.67;;;;;12.74;65.41;99784.22;2104887;28;46136;-61
2023/04/01 04:26:54;;;;;;;;;0.00;0.00;;;;;12.75;65.34;99790.41;2104545;28;46654;-60
2023/04/01 04:27:55;;;;;;;;;4.33;0.33;;;;;12.76;65.39;99784.13;2101647;28;47147;-59
2023/04/01 04:28:55;;;;;;;;;2.00;1.00;;;;;12.77;65.46;99789.38;2104896;28;45843;-61
2023/04/01 04:29:56;;;;;;;;;0.00;0.00;;;;;12.78;65.20;99790.25;2095836;28;46024;-61
2023/04/01 04:30:56;;;;;;;;;1.00;1.00;;;;;12.79;65.24;99789.31;2095886;28;45922;-62
2023/04/01 04:31:57;;;;;;;;;2.00;0.33;;;;;12.79;65.20;99792.84;2095766;28;46395;-60
2023/04/01 04:32:57;;;;;;;;;0.00;0.00;;;;;12.78;65.18;99791.13;2104920;28;46697;-61
2023/04/01 04:34:00;;;;;;;;;0.00;0.00;;;;;12.79;65.20;99789.31;2105175;28;45819;-60
2023/04/01 04:35:01;;;;;;;;;2.00;1.25;;;;;12.77;65.19;99791.19;2104708;28;46564;-63
2023/04/01 04:36:03;;;;;;;;;2.00;1.00;;;;;12.79;65.21;99786.66;2104731;28;46363;-62
2023/04/01 04:37:03;;;;;;;;;1.33;1.33;;;;;12.81;64.99;99790.09;2104819;28;46849;-62
2023/04/01 04:38:04;;;;;;;;;0.00;0.00;;;;;12.79;65.20;99795.50;2104888;28;46286;-61
2023/04/01 04:39:04;;;;;;;;;0.67;0.67;;;;;12.81;64.92;99798.09;2104589;28;46488;-60
2023/04/01 04:40:05;;;;;;;;;2.00;1.00;;;;;12.81;65.15;99790.09;2095337;28;47238;-59
2023/04/01 04:41:13;;;;;;;;;0.50;0.50;;;;;12.80;65.40;99791.03;2070352;28;46620;-60
2023/04/01 04:42:13;;;;;;;;;0.50;0.50;;;;;12.82;65.06;99797.16;2077575;28;46337;-60
2023/04/01 04:43:16;;;;;;;;;3.00;1.00;;;;;12.83;65.04;99799.78;2087253;28;46359;-60
2023/04/01 04:44:16;;;;;;;;;0.75;0.50;;;;;12.85;64.97;99791.72;2095707;28;46777;-61
2023/04/01 04:45:16;;;;;;;;;0.00;0.00;;;;;12.85;65.01;99797.91;2101029;28;45805;-61
2023/04/01 04:46:17;;;;;;;;;1.00;1.00;;;;;12.87;65.06;99789.84;2104846;28;46565;-60
2023/04/01 04:47:17;;;;;;;;;1.00;0.00;;;;;12.87;64.93;99804.03;2104736;28;46246;-60
2023/04/01 04:48:19;;;;;;;;;0.33;0.00;;;;;12.87;64.79;99813.81;2101431;28;45221;-61
2023/04/01 04:49:20;;;;;;;;;0.50;0.50;;;;;12.86;64.78;99804.09;2096531;28;46857;-60
2023/04/01 04:50:20;;;;;;;;;2.00;1.00;;;;;12.87;64.85;99808.47;2102931;28;47220;-60
2023/04/01 04:51:21;;;;;;;;;0.67;0.67;;;;;12.85;64.86;99795.25;2104849;28;46356;-61
2023/04/01 04:52:22;;;;;;;;;1.00;0.00;;;;;12.85;64.69;99802.38;2104859;28;46807;-60
2023/04/01 04:53:22;;;;;;;;;0.00;0.00;;;;;12.86;64.77;99806.75;2095002;28;46490;-60
2023/04/01 04:54:22;;;;;;;;;0.67;0.67;;;;;12.87;64.77;99811.16;2095126;28;46138;-59
2023/04/01 04:55:23;;;;;;;;;3.00;1.00;;;;;12.86;64.95;99804.09;2103109;28;46638;-60
2023/04/01 04:56:25;;;;;;;;;0.00;0.00;;;;;12.87;64.82;99812.00;2102869;28;45914;-59
2023/04/01 04:57:25;;;;;;;;;0.25;0.25;;;;;12.85;64.71;99803.22;2095929;28;46670;-60
2023/04/01 04:58:26;;;;;;;;;2.00;1.00;;;;;12.86;64.64;99801.44;2095119;28;46261;-59